首页
METAR-TAF:

METAR-TAF

机场 :

烏爾米耶機場

乌尔米耶, 伊朗

纬度: 37-32N, 经度: 045-05E, 海拔: 1297米

当前天气观测

该预报发布于1小时和0分钟前的16:00 UTC
风速4节,风向西
温度 0°C
湿度 86%
气压 1016 hPa
能見度: 6000
少量云层高于3000英尺, 积雨云.
散云层高于3500英尺
阴天层高于9000英尺

METAR: OITR 121600Z 27004KT 6000 FEW030CB SCT035 OVC090 00/M02 Q1016

时间: 20:30 (17:00 UTC)

预报

该预报发布于5小时和10分钟前的11:50 UTC
预报有效从12日的 12点(UTC)到 13日的 18点(UTC)
风速8节,风向东转东南
能見度: 6000
少量云层高于3000英尺, 积雨云.
散云层高于3500英尺
阴天层高于9000英尺
短暂存在
从 13日的 09点(UTC)到 13日的 12点(UTC)
能見度: 5000
阵雨
成为
从 13日的 13点(UTC)到 13日的 14点(UTC)
少量云层高于2500英尺
散云层高于3000英尺
散云层高于9000英尺
成为
从 13日的 17点(UTC)到 13日的 18点(UTC)
能見度: 4000
轻雾

TAF: OITR 121150Z 1212/1318 11008KT 6000 FEW030CB SCT035 OVC090 TEMPO 1309/1312 5000 SHRA BECMG 1313/1314 FEW025 SCT030 SCT090 BECMG 1317/1318 4000 BR

超过4000个机场的气象观测和天气预报(METAR&TAF报告)。

可查询的气象台以黄色和红色小点在地图上表示。

将鼠标移到小点上方,可查看气象台名称。

然后点击查看天气观测和预报。

如需切换地图:点击带黑十字的绿色按钮放大地图;点击带横线的绿色按钮缩小地图;或者点击绿色箭头查看邻近地区的地图。


METAR-TAF: